createdAt,value
2017-11-14T00:01:35.471Z,69.60
2017-11-14T00:04:03.771Z,69.60
2017-11-14T00:06:32.876Z,69.40
2017-11-14T00:09:01.971Z,69.40
2017-11-14T00:11:31.066Z,69.30
2017-11-14T00:14:00.142Z,70.20
2017-11-14T00:16:28.442Z,69.50
2017-11-14T00:18:57.536Z,69.00
2017-11-14T00:21:25.821Z,69.00
2017-11-14T00:23:54.118Z,68.60
2017-11-14T00:26:23.188Z,69.00
2017-11-14T00:28:51.500Z,69.00
2017-11-14T00:31:20.568Z,71.90
2017-11-14T00:33:48.890Z,71.80
2017-11-14T00:36:17.224Z,72.80
2017-11-14T00:38:45.654Z,74.50
2017-11-14T00:41:14.734Z,76.00
2017-11-14T00:43:43.812Z,77.10
2017-11-14T00:46:12.871Z,78.10
2017-11-14T00:48:41.174Z,77.40
2017-11-14T00:51:09.502Z,77.80
2017-11-14T00:53:38.567Z,79.00
2017-11-14T00:56:06.869Z,78.90
2017-11-14T00:58:35.177Z,79.00
2017-11-14T01:01:03.463Z,79.20
2017-11-14T01:03:31.774Z,79.60
2017-11-14T01:06:00.152Z,79.80
2017-11-14T01:08:28.460Z,80.10
2017-11-14T01:10:56.771Z,80.10
2017-11-14T01:13:25.847Z,80.10
2017-11-14T01:15:54.146Z,80.00
2017-11-14T01:18:22.482Z,80.20
2017-11-14T01:20:50.814Z,80.20
2017-11-14T01:23:19.875Z,80.70
2017-11-14T01:25:48.203Z,80.70
2017-11-14T01:28:17.409Z,80.90
2017-11-14T01:30:46.469Z,81.00
2017-11-14T01:33:14.783Z,80.90
2017-11-14T01:35:43.848Z,81.00
2017-11-14T01:38:12.158Z,81.00
2017-11-14T01:40:41.243Z,81.60
2017-11-14T01:43:09.567Z,81.50
2017-11-14T01:45:37.874Z,81.90
2017-11-14T01:48:06.173Z,82.00
2017-11-14T01:50:36.017Z,82.60
2017-11-14T01:53:05.090Z,82.40
2017-11-14T01:55:34.173Z,82.50
2017-11-14T01:58:02.627Z,82.50
2017-11-14T02:00:48.795Z,82.80
2017-11-14T02:03:17.849Z,83.20
2017-11-14T02:05:46.154Z,83.10
2017-11-14T02:08:15.361Z,83.00
2017-11-14T02:10:44.424Z,83.00
2017-11-14T02:13:12.759Z,83.20
2017-11-14T02:15:41.850Z,83.20
2017-11-14T02:18:10.983Z,83.10
2017-11-14T02:20:39.282Z,83.10
2017-11-14T02:23:07.574Z,82.90
2017-11-14T02:25:35.867Z,82.80
2017-11-14T02:28:04.159Z,83.00
2017-11-14T02:30:32.465Z,83.20
2017-11-14T02:33:01.526Z,83.10
2017-11-14T02:35:29.836Z,83.10
2017-11-14T02:37:58.900Z,83.00
2017-11-14T02:40:27.207Z,83.00
2017-11-14T02:42:56.317Z,82.90
2017-11-14T02:45:25.392Z,83.00
2017-11-14T02:47:53.837Z,82.90
2017-11-14T02:50:22.149Z,83.00
2017-11-14T02:52:50.459Z,83.10
2017-11-14T02:55:19.568Z,83.10
2017-11-14T02:57:48.679Z,83.10
2017-11-14T03:00:16.988Z,83.10
2017-11-14T03:02:45.293Z,83.00
2017-11-14T03:05:13.589Z,82.70
2017-11-14T03:07:43.403Z,82.90
2017-11-14T03:10:13.219Z,82.80
2017-11-14T03:12:41.512Z,82.80
2017-11-14T03:15:09.844Z,82.80
2017-11-14T03:17:38.140Z,82.90
2017-11-14T03:20:06.487Z,82.70
2017-11-14T03:22:34.818Z,82.50
2017-11-14T03:25:03.120Z,82.50
2017-11-14T03:27:32.211Z,82.20
2017-11-14T03:30:00.531Z,82.10
2017-11-14T03:32:28.853Z,81.90
2017-11-14T03:34:57.156Z,81.90
2017-11-14T03:37:25.451Z,81.90
2017-11-14T03:39:53.869Z,81.90
2017-11-14T03:42:22.175Z,81.70
2017-11-14T03:44:50.502Z,81.40
2017-11-14T03:47:19.624Z,81.10
2017-11-14T03:49:47.921Z,81.00
2017-11-14T03:52:16.237Z,80.90
2017-11-14T03:54:46.042Z,80.60
2017-11-14T03:57:14.336Z,80.50
2017-11-14T03:59:42.633Z,80.60
2017-11-14T04:02:10.956Z,80.40
2017-11-14T04:04:39.352Z,81.20
2017-11-14T04:07:07.661Z,80.00
2017-11-14T04:09:35.961Z,80.00
2017-11-14T04:12:04.268Z,80.00
2017-11-14T04:14:33.346Z,79.60
2017-11-14T04:17:02.392Z,79.50
2017-11-14T04:19:30.707Z,79.40
2017-11-14T04:21:59.019Z,79.40
2017-11-14T04:24:28.094Z,78.70
2017-11-14T04:26:56.448Z,78.70
2017-11-14T04:29:24.784Z,78.60
2017-11-14T04:31:53.848Z,78.20
2017-11-14T04:34:22.225Z,78.20
2017-11-14T04:36:50.537Z,77.90
2017-11-14T04:39:19.602Z,78.10
2017-11-14T04:41:47.899Z,77.20
2017-11-14T04:44:16.989Z,77.50
2017-11-14T04:46:45.349Z,77.40
2017-11-14T04:49:13.642Z,77.30
2017-11-14T04:51:41.973Z,77.20
2017-11-14T04:54:11.028Z,77.00
2017-11-14T04:56:39.322Z,77.00
2017-11-14T04:59:07.660Z,77.00
2017-11-14T05:01:35.961Z,77.20
2017-11-14T05:04:04.260Z,77.10
2017-11-14T05:06:33.326Z,77.40
2017-11-14T05:09:01.640Z,77.40
2017-11-14T05:11:29.940Z,77.10
2017-11-14T05:13:58.257Z,76.90
2017-11-14T05:16:26.546Z,77.10
2017-11-14T05:18:54.846Z,77.30
2017-11-14T05:21:23.147Z,77.10
2017-11-14T05:23:51.451Z,77.20
2017-11-14T05:26:19.751Z,76.90
2017-11-14T05:28:48.814Z,76.70
2017-11-14T05:31:17.120Z,76.70
2017-11-14T05:33:46.177Z,76.50
2017-11-14T05:36:14.458Z,76.50
2017-11-14T05:38:43.517Z,76.60
2017-11-14T05:41:11.844Z,76.60
2017-11-14T05:43:40.152Z,76.50
2017-11-14T05:46:09.228Z,76.10
2017-11-14T05:48:37.545Z,76.10
2017-11-14T05:51:06.645Z,75.90
2017-11-14T05:53:35.731Z,75.70
2017-11-14T05:56:04.828Z,76.30
2017-11-14T05:58:33.132Z,75.60
2017-11-14T06:01:02.240Z,74.60
2017-11-14T06:03:30.544Z,74.60
2017-11-14T06:05:58.840Z,74.50
2017-11-14T06:08:27.256Z,74.60
2017-11-14T06:10:55.542Z,74.40
2017-11-14T06:13:23.855Z,74.30
2017-11-14T06:15:52.139Z,74.50
2017-11-14T06:18:20.522Z,74.50
2017-11-14T06:20:48.843Z,74.30
2017-11-14T06:23:17.141Z,74.40
2017-11-14T06:25:45.453Z,73.90
2017-11-14T06:28:13.759Z,73.80
2017-11-14T06:30:42.057Z,73.70
2017-11-14T06:33:10.362Z,73.40
2017-11-14T06:35:38.676Z,73.10
2017-11-14T06:38:07.741Z,72.90
2017-11-14T06:40:36.047Z,72.90
2017-11-14T06:43:05.163Z,73.20
2017-11-14T06:45:33.482Z,73.10
2017-11-14T06:48:02.536Z,73.10
2017-11-14T06:50:31.584Z,73.30
2017-11-14T06:53:00.045Z,73.30
2017-11-14T06:55:28.336Z,73.50
2017-11-14T06:57:56.637Z,74.30
2017-11-14T07:00:24.930Z,73.50
2017-11-14T07:02:53.250Z,73.70
2017-11-14T07:05:22.318Z,73.90
2017-11-14T07:07:52.110Z,73.70
2017-11-14T07:10:20.430Z,73.80
2017-11-14T07:12:49.497Z,74.10
2017-11-14T07:15:17.803Z,74.10
2017-11-14T07:17:46.101Z,74.10
2017-11-14T07:20:14.419Z,74.20
2017-11-14T07:22:42.724Z,74.50
2017-11-14T07:25:11.062Z,74.50
2017-11-14T07:27:39.460Z,74.20
2017-11-14T07:30:07.795Z,74.00
2017-11-14T07:32:36.117Z,74.20
2017-11-14T07:35:04.438Z,74.10
2017-11-14T07:37:32.749Z,74.10
2017-11-14T07:40:01.821Z,73.70
2017-11-14T07:42:30.108Z,73.60
2017-11-14T07:44:58.404Z,73.60
2017-11-14T07:47:26.709Z,73.50
2017-11-14T07:49:55.048Z,73.40
2017-11-14T07:52:23.353Z,72.90
2017-11-14T07:54:52.425Z,72.40
2017-11-14T07:57:21.501Z,72.60
2017-11-14T07:59:49.826Z,71.80
2017-11-14T08:02:18.465Z,71.70
2017-11-14T08:04:46.763Z,71.50
2017-11-14T08:07:15.055Z,71.70
2017-11-14T08:09:43.361Z,71.40
2017-11-14T08:12:12.443Z,71.20
2017-11-14T08:14:40.739Z,71.10
2017-11-14T08:17:09.856Z,70.50
2017-11-14T08:19:38.914Z,70.00
2017-11-14T08:22:07.224Z,70.00
2017-11-14T08:24:37.121Z,69.90
2017-11-14T08:27:06.212Z,69.60
2017-11-14T08:29:34.602Z,70.00
2017-11-14T08:32:02.906Z,70.00
2017-11-14T08:34:32.104Z,70.10
2017-11-14T08:37:01.187Z,70.10
2017-11-14T08:39:30.276Z,69.80
2017-11-14T08:41:58.583Z,69.80
2017-11-14T08:44:26.917Z,69.90
2017-11-14T08:46:55.227Z,70.60
2017-11-14T08:49:24.318Z,70.20
2017-11-14T08:51:52.643Z,70.30
2017-11-14T08:54:21.716Z,70.50
2017-11-14T08:56:50.022Z,70.50
2017-11-14T08:59:19.088Z,71.30
2017-11-14T09:01:48.970Z,70.50
2017-11-14T09:04:17.315Z,69.40
2017-11-14T09:06:46.536Z,69.10
2017-11-14T09:09:14.849Z,69.10
2017-11-14T09:11:43.154Z,69.30
2017-11-14T09:14:11.467Z,69.30
2017-11-14T09:16:40.546Z,69.40
2017-11-14T09:19:08.866Z,69.40
2017-11-14T09:21:37.188Z,69.10
2017-11-14T09:24:05.503Z,69.30
2017-11-14T09:26:34.363Z,69.20
2017-11-14T09:29:02.691Z,69.10
2017-11-14T09:31:31.773Z,69.00
2017-11-14T09:34:00.096Z,68.90
2017-11-14T09:36:28.414Z,68.70
2017-11-14T09:38:56.724Z,68.70
2017-11-14T09:41:26.084Z,69.80
2017-11-14T09:43:54.408Z,69.10
2017-11-14T09:46:22.718Z,69.10
2017-11-14T09:48:51.124Z,69.20
2017-11-14T09:51:19.460Z,69.60
2017-11-14T09:53:48.632Z,69.80
2017-11-14T09:56:17.739Z,69.50
2017-11-14T09:58:47.644Z,70.20
2017-11-14T10:01:15.968Z,70.20
2017-11-14T10:03:45.039Z,70.60
2017-11-14T10:06:13.342Z,70.60
2017-11-14T10:08:42.444Z,70.80
2017-11-14T10:11:11.533Z,70.70
2017-11-14T10:13:39.855Z,70.70
2017-11-14T10:16:08.173Z,71.20
2017-11-14T10:18:36.505Z,70.60
2017-11-14T10:21:04.850Z,70.80
2017-11-14T10:23:33.161Z,70.70
2017-11-14T10:26:02.312Z,70.80
2017-11-14T10:28:30.703Z,70.70
2017-11-14T10:30:59.022Z,70.80
2017-11-14T10:33:28.179Z,71.20
2017-11-14T10:35:56.591Z,71.20
2017-11-14T10:38:24.910Z,71.20
2017-11-14T10:40:53.230Z,71.20
2017-11-14T10:43:21.685Z,71.20
2017-11-14T10:45:50.034Z,71.10
2017-11-14T10:48:19.164Z,71.10
2017-11-14T10:50:47.491Z,71.10
2017-11-14T10:53:15.860Z,71.10
2017-11-14T10:55:44.194Z,70.90
2017-11-14T10:58:12.509Z,70.70
2017-11-14T11:00:40.838Z,70.90
2017-11-14T11:03:09.980Z,70.40
2017-11-14T11:05:38.322Z,70.40
2017-11-14T11:08:07.408Z,70.80
2017-11-14T11:10:35.763Z,70.70
2017-11-14T11:13:04.093Z,70.70
2017-11-14T11:15:33.180Z,71.20
2017-11-14T11:18:01.559Z,71.20
2017-11-14T11:20:30.632Z,72.20
2017-11-14T11:22:58.955Z,71.90
2017-11-14T11:25:28.033Z,72.10
2017-11-14T11:27:56.358Z,72.10
2017-11-14T11:30:24.671Z,72.40
2017-11-14T11:32:53.924Z,73.40
2017-11-14T11:35:23.002Z,73.20
2017-11-14T11:37:51.314Z,73.20
2017-11-14T11:40:19.622Z,74.00
2017-11-14T11:42:48.024Z,74.40
2017-11-14T11:45:16.354Z,74.90
2017-11-14T11:47:44.759Z,75.80
2017-11-14T11:50:13.113Z,76.20
2017-11-14T11:52:41.423Z,76.90
2017-11-14T11:55:09.741Z,77.50
2017-11-14T11:57:38.066Z,78.60
2017-11-14T12:00:07.152Z,79.80
2017-11-14T12:02:36.218Z,80.10
2017-11-14T12:05:04.542Z,80.10
2017-11-14T12:07:33.766Z,81.00
2017-11-14T12:10:02.086Z,81.00
2017-11-14T12:12:30.408Z,81.20
2017-11-14T12:14:59.503Z,81.60
2017-11-14T12:17:28.600Z,81.80
2017-11-14T12:19:57.673Z,82.50
2017-11-14T12:22:26.064Z,82.50
2017-11-14T12:24:54.393Z,82.60
2017-11-14T12:27:23.120Z,82.70
2017-11-14T12:29:51.437Z,83.10
2017-11-14T12:32:20.532Z,83.70
2017-11-14T12:34:49.612Z,83.80
2017-11-14T12:37:17.927Z,84.50
2017-11-14T12:39:47.015Z,84.50
2017-11-14T12:42:16.123Z,84.70
2017-11-14T12:44:44.461Z,84.70
2017-11-14T12:47:12.771Z,84.90
2017-11-14T12:49:41.097Z,85.10
2017-11-14T12:52:09.416Z,85.20
2017-11-14T12:54:37.706Z,85.60
2017-11-14T12:57:06.088Z,86.00
2017-11-14T12:59:34.422Z,86.00
2017-11-14T13:02:02.749Z,86.30
2017-11-14T13:04:31.065Z,86.50
2017-11-14T13:07:00.145Z,86.70
2017-11-14T13:09:28.464Z,86.70
2017-11-14T13:11:56.771Z,87.00
2017-11-14T13:14:25.087Z,87.00
2017-11-14T13:16:53.509Z,87.20
2017-11-14T13:19:21.844Z,87.40
2017-11-14T13:21:50.161Z,87.60
2017-11-14T13:24:18.469Z,87.50
2017-11-14T13:26:46.811Z,87.90
2017-11-14T13:29:16.004Z,88.30
2017-11-14T13:31:44.367Z,88.30
2017-11-14T13:34:12.667Z,88.50
2017-11-14T13:36:40.997Z,88.80
2017-11-14T13:39:09.324Z,88.90
2017-11-14T13:41:37.694Z,89.20
2017-11-14T13:44:06.001Z,89.40
2017-11-14T13:46:35.130Z,89.60
2017-11-14T13:49:03.458Z,89.50
2017-11-14T13:51:31.819Z,89.80
2017-11-14T13:54:00.129Z,89.90
2017-11-14T13:56:28.453Z,90.00
2017-11-14T13:58:56.780Z,90.00
2017-11-14T14:01:25.105Z,90.10
2017-11-14T14:03:53.443Z,90.20
2017-11-14T14:06:21.772Z,90.30
2017-11-14T14:08:50.092Z,90.40
2017-11-14T14:11:18.402Z,90.50
2017-11-14T14:13:46.724Z,90.60
2017-11-14T14:16:15.027Z,90.60
2017-11-14T14:18:43.354Z,90.70
2017-11-14T14:21:11.701Z,90.80
2017-11-14T14:23:40.059Z,90.90
2017-11-14T14:26:08.361Z,91.20
2017-11-14T14:28:36.695Z,90.90
2017-11-14T14:31:05.785Z,91.00
2017-11-14T14:33:34.096Z,91.00
2017-11-14T14:36:02.439Z,91.10
2017-11-14T14:38:30.765Z,91.10
2017-11-14T14:40:59.070Z,91.10
2017-11-14T14:43:27.393Z,91.20
2017-11-14T14:45:55.708Z,91.20
2017-11-14T14:48:24.042Z,91.20
2017-11-14T14:50:52.344Z,91.20
2017-11-14T14:53:21.419Z,91.40
2017-11-14T14:55:49.731Z,91.30
2017-11-14T14:58:18.806Z,91.30
2017-11-14T15:00:47.145Z,91.30
2017-11-14T15:03:15.440Z,91.30
2017-11-14T15:05:43.745Z,91.40
2017-11-14T15:08:12.063Z,91.40
2017-11-14T15:10:41.160Z,91.40
2017-11-14T15:13:10.249Z,91.40
2017-11-14T15:15:39.300Z,91.40
2017-11-14T15:18:07.608Z,91.40
2017-11-14T15:20:35.918Z,91.30
2017-11-14T15:23:05.001Z,91.40
2017-11-14T15:25:33.319Z,91.40
2017-11-14T15:28:01.624Z,91.60
2017-11-14T15:30:30.699Z,91.30
2017-11-14T15:32:59.086Z,91.40
2017-11-14T15:35:28.174Z,91.40
2017-11-14T15:37:56.506Z,91.40
2017-11-14T15:40:24.824Z,91.40
2017-11-14T15:42:53.909Z,91.40
2017-11-14T15:45:23.002Z,91.40
2017-11-14T15:47:51.318Z,91.40
2017-11-14T15:50:19.666Z,91.40
2017-11-14T15:52:47.975Z,91.30
2017-11-14T15:55:17.067Z,91.30
2017-11-14T15:57:46.244Z,91.30
2017-11-14T16:00:14.565Z,91.30
2017-11-14T16:02:42.874Z,91.30
2017-11-14T16:05:11.216Z,91.30
2017-11-14T16:07:40.304Z,91.30
2017-11-14T16:10:09.381Z,91.20
2017-11-14T16:12:37.713Z,91.20
2017-11-14T16:15:06.037Z,91.20
2017-11-14T16:17:34.389Z,91.20
2017-11-14T16:20:02.704Z,91.20
2017-11-14T16:22:31.021Z,91.20
2017-11-14T16:25:00.105Z,91.10
2017-11-14T16:27:28.530Z,91.00
2017-11-14T16:29:56.852Z,90.70
2017-11-14T16:32:25.158Z,91.00
2017-11-14T16:34:53.485Z,91.00
2017-11-14T16:37:21.801Z,91.00
2017-11-14T16:39:50.130Z,91.10
2017-11-14T16:42:18.525Z,91.00
2017-11-14T16:44:46.911Z,91.00
2017-11-14T16:47:15.228Z,91.00
2017-11-14T16:49:43.605Z,90.90
2017-11-14T16:52:11.948Z,90.90
2017-11-14T16:54:40.274Z,90.90
2017-11-14T16:57:08.598Z,90.90
2017-11-14T16:59:37.721Z,90.90
2017-11-14T17:02:06.026Z,90.90
2017-11-14T17:04:34.364Z,90.90
2017-11-14T17:07:02.681Z,90.90
2017-11-14T17:09:31.014Z,90.80
2017-11-14T17:12:00.098Z,90.70
2017-11-14T17:14:28.486Z,90.70
2017-11-14T17:16:57.578Z,90.70
2017-11-14T17:19:25.880Z,90.70
2017-11-14T17:21:54.978Z,90.50
2017-11-14T17:24:24.096Z,90.50
2017-11-14T17:26:52.425Z,90.50
2017-11-14T17:29:20.742Z,90.40
2017-11-14T17:31:49.838Z,90.40
2017-11-14T17:34:18.951Z,90.60
2017-11-14T17:36:48.027Z,90.40
2017-11-14T17:39:16.358Z,90.40
2017-11-14T17:41:44.690Z,90.70
2017-11-14T17:44:13.017Z,90.30
2017-11-14T17:46:41.373Z,90.20
2017-11-14T17:49:10.491Z,90.40
2017-11-14T17:51:38.809Z,90.40
2017-11-14T17:54:07.122Z,90.30
2017-11-14T17:56:35.438Z,90.30
2017-11-14T17:59:03.758Z,90.30
2017-11-14T18:01:32.078Z,90.10
2017-11-14T18:04:01.186Z,90.00
2017-11-14T18:06:30.277Z,90.10
2017-11-14T18:08:59.393Z,90.10
2017-11-14T18:11:27.796Z,90.10
2017-11-14T18:13:56.173Z,90.10
2017-11-14T18:16:24.472Z,90.10
2017-11-14T18:18:52.794Z,90.10
2017-11-14T18:21:21.876Z,90.20
2017-11-14T18:23:50.185Z,90.00
2017-11-14T18:26:19.420Z,89.70
2017-11-14T18:28:47.724Z,89.80
2017-11-14T18:31:16.031Z,89.70
2017-11-14T18:33:44.340Z,89.70
2017-11-14T18:36:13.459Z,89.60
2017-11-14T18:38:41.762Z,89.60
2017-11-14T18:41:10.074Z,89.60
2017-11-14T18:43:38.389Z,89.30
2017-11-14T18:46:07.480Z,89.30
2017-11-14T18:48:36.587Z,89.10
2017-11-14T18:51:04.923Z,89.10
2017-11-14T18:53:33.245Z,88.90
2017-11-14T18:56:02.358Z,89.00
2017-11-14T18:58:30.696Z,89.00
2017-11-14T19:00:59.022Z,89.00
2017-11-14T19:03:27.350Z,88.90
2017-11-14T19:05:55.685Z,89.00
2017-11-14T19:08:24.013Z,89.00
2017-11-14T19:10:52.364Z,89.00
2017-11-14T19:13:20.666Z,89.00
2017-11-14T19:15:48.985Z,89.00
2017-11-14T19:18:18.128Z,88.90
2017-11-14T19:20:46.448Z,88.90
2017-11-14T19:23:14.847Z,88.90
2017-11-14T19:25:43.944Z,88.90
2017-11-14T19:28:12.279Z,88.80
2017-11-14T19:30:40.598Z,88.90
2017-11-14T19:33:08.931Z,89.00
2017-11-14T19:35:37.236Z,89.00
2017-11-14T19:38:06.310Z,89.10
2017-11-14T19:40:34.649Z,89.10
2017-11-14T19:43:02.972Z,89.40
2017-11-14T19:45:31.287Z,89.80
2017-11-14T19:47:59.617Z,90.00
2017-11-14T19:50:28.692Z,90.10
2017-11-14T19:52:57.063Z,90.10
2017-11-14T19:55:25.397Z,90.20
2017-11-14T19:57:53.710Z,90.30
2017-11-14T20:00:22.059Z,90.30
2017-11-14T20:02:50.373Z,90.40
2017-11-14T20:05:18.694Z,90.50
2017-11-14T20:07:46.995Z,90.60
2017-11-14T20:10:16.107Z,90.70
2017-11-14T20:12:45.174Z,90.80
2017-11-14T20:15:13.515Z,90.80
2017-11-14T20:17:41.861Z,90.80
2017-11-14T20:20:10.185Z,90.90
2017-11-14T20:22:38.493Z,90.90
2017-11-14T20:25:06.820Z,90.90
2017-11-14T20:27:35.157Z,90.90
2017-11-14T20:30:03.475Z,91.00
2017-11-14T20:32:31.773Z,91.10
2017-11-14T20:35:00.081Z,91.10
2017-11-14T20:37:29.213Z,91.10
2017-11-14T20:39:57.537Z,91.00
2017-11-14T20:42:25.853Z,91.40
2017-11-14T20:44:54.172Z,91.10
2017-11-14T20:47:23.330Z,91.10
2017-11-14T20:49:51.645Z,91.10
2017-11-14T20:52:20.007Z,91.10
2017-11-14T20:54:48.353Z,91.10
2017-11-14T20:57:17.436Z,91.20
2017-11-14T20:59:45.740Z,91.10
2017-11-14T21:02:14.085Z,91.10
2017-11-14T21:04:43.181Z,91.10
2017-11-14T21:07:12.239Z,91.10
2017-11-14T21:09:40.562Z,91.20
2017-11-14T21:12:09.650Z,91.20
2017-11-14T21:14:38.737Z,91.30
2017-11-14T21:17:07.056Z,91.20
2017-11-14T21:19:35.376Z,91.10
2017-11-14T21:22:03.732Z,91.10
2017-11-14T21:24:32.050Z,91.10
2017-11-14T21:27:00.381Z,91.00
2017-11-14T21:29:28.685Z,90.90
2017-11-14T21:31:57.762Z,90.90
2017-11-14T21:34:26.079Z,90.90
2017-11-14T21:36:54.381Z,90.90
2017-11-14T21:39:22.721Z,90.90
2017-11-14T21:41:51.046Z,90.90
2017-11-14T21:44:19.353Z,90.90
2017-11-14T21:46:48.459Z,90.70
2017-11-14T21:49:17.538Z,90.80
2017-11-14T21:51:45.867Z,90.80
2017-11-14T21:54:14.197Z,90.80
2017-11-14T21:56:42.502Z,90.70
2017-11-14T21:59:11.582Z,90.70
2017-11-14T22:01:39.919Z,90.80
2017-11-14T22:04:08.242Z,90.80
2017-11-14T22:06:36.561Z,90.60
2017-11-14T22:09:04.905Z,90.70
2017-11-14T22:11:33.220Z,90.70
2017-11-14T22:14:02.317Z,90.60
2017-11-14T22:16:31.402Z,90.50
2017-11-14T22:19:00.543Z,90.90
2017-11-14T22:21:28.850Z,90.50
2017-11-14T22:23:57.176Z,90.50
2017-11-14T22:26:26.261Z,90.40
2017-11-14T22:28:54.574Z,90.40
2017-11-14T22:31:22.888Z,90.40
2017-11-14T22:33:51.176Z,90.40
2017-11-14T22:36:19.499Z,90.40
2017-11-14T22:38:48.614Z,90.70
2017-11-14T22:41:16.930Z,90.40
2017-11-14T22:43:45.236Z,90.20
2017-11-14T22:46:13.541Z,90.10
2017-11-14T22:48:42.700Z,90.10
2017-11-14T22:51:11.031Z,90.10
2017-11-14T22:53:40.125Z,90.10
2017-11-14T22:56:09.211Z,90.10
2017-11-14T22:58:37.523Z,90.10
2017-11-14T23:01:05.840Z,90.10
2017-11-14T23:03:34.339Z,90.00
2017-11-14T23:06:02.668Z,90.00
2017-11-14T23:08:31.000Z,89.90
2017-11-14T23:10:59.299Z,89.80
2017-11-14T23:13:27.626Z,89.70
2017-11-14T23:15:55.921Z,89.90
2017-11-14T23:18:24.245Z,89.80
2017-11-14T23:20:53.336Z,90.00
2017-11-14T23:23:21.663Z,89.50
2017-11-14T23:25:49.986Z,89.20
2017-11-14T23:28:18.383Z,89.30
2017-11-14T23:30:46.716Z,88.90
2017-11-14T23:33:15.045Z,89.70
2017-11-14T23:35:43.376Z,89.10
2017-11-14T23:38:11.693Z,88.90
2017-11-14T23:40:40.014Z,89.00
2017-11-14T23:43:09.105Z,88.80
2017-11-14T23:45:37.429Z,88.80
2017-11-14T23:48:05.741Z,88.80
2017-11-14T23:50:34.080Z,89.00
2017-11-14T23:53:03.528Z,89.00
2017-11-14T23:55:31.854Z,89.10
2017-11-14T23:58:01.242Z,88.90
